createdAt,value
2018-01-15T00:00:55.787Z,797
2018-01-15T00:02:02.975Z,797
2018-01-15T00:03:10.157Z,797
2018-01-15T00:04:17.065Z,797
2018-01-15T00:05:24.253Z,798
2018-01-15T00:06:31.165Z,798
2018-01-15T00:07:38.351Z,797
2018-01-15T00:08:45.539Z,797
2018-01-15T00:09:52.725Z,797
2018-01-15T00:10:59.916Z,799
2018-01-15T00:12:07.101Z,798
2018-01-15T00:13:14.005Z,799
2018-01-15T00:14:21.194Z,798
2018-01-15T00:15:28.374Z,798
2018-01-15T00:16:35.010Z,798
2018-01-15T00:17:42.200Z,800
2018-01-15T00:18:49.109Z,798
2018-01-15T00:19:56.295Z,799
2018-01-15T00:21:03.497Z,799
2018-01-15T00:22:10.681Z,798
2018-01-15T00:23:17.869Z,798
2018-01-15T00:24:24.779Z,800
2018-01-15T00:25:31.683Z,799
2018-01-15T00:26:38.876Z,799
2018-01-15T00:27:45.787Z,799
2018-01-15T00:28:52.972Z,800
2018-01-15T00:29:59.889Z,800
2018-01-15T00:31:07.076Z,800
2018-01-15T00:32:14.263Z,801
2018-01-15T00:33:21.449Z,800
2018-01-15T00:34:28.637Z,800
2018-01-15T00:35:35.821Z,801
2018-01-15T00:36:43.040Z,800
2018-01-15T00:37:50.227Z,802
2018-01-15T00:38:57.415Z,801
2018-01-15T00:40:04.602Z,802
2018-01-15T00:41:11.786Z,802
2018-01-15T00:42:18.704Z,801
2018-01-15T00:43:25.889Z,800
2018-01-15T00:44:33.075Z,801
2018-01-15T00:45:54.632Z,801
2018-01-15T00:47:01.549Z,801
2018-01-15T00:48:08.732Z,801
2018-01-15T00:49:15.917Z,801
2018-01-15T00:50:23.107Z,802
2018-01-15T00:51:30.019Z,802
2018-01-15T00:52:37.206Z,802
2018-01-15T00:53:44.391Z,802
2018-01-15T00:54:51.297Z,803
2018-01-15T00:55:58.478Z,801
2018-01-15T00:57:05.663Z,803
2018-01-15T00:58:12.304Z,801
2018-01-15T00:59:19.488Z,802
2018-01-15T01:00:26.675Z,801
2018-01-15T01:01:33.590Z,802
2018-01-15T01:02:40.514Z,802
2018-01-15T01:03:47.699Z,802
2018-01-15T01:04:54.885Z,802
2018-01-15T01:06:02.066Z,802
2018-01-15T01:07:09.252Z,802
2018-01-15T01:08:16.437Z,802
2018-01-15T01:09:23.624Z,802
2018-01-15T01:10:30.809Z,801
2018-01-15T01:11:37.716Z,802
2018-01-15T01:12:44.896Z,802
2018-01-15T01:13:52.081Z,801
2018-01-15T01:14:59.269Z,801
2018-01-15T01:16:06.452Z,802
2018-01-15T01:17:13.359Z,802
2018-01-15T01:18:20.547Z,802
2018-01-15T01:19:27.464Z,802
2018-01-15T01:20:34.651Z,802
2018-01-15T01:21:41.867Z,802
2018-01-15T01:22:48.777Z,803
2018-01-15T01:23:55.964Z,802
2018-01-15T01:25:03.150Z,801
2018-01-15T01:26:10.064Z,802
2018-01-15T01:27:17.248Z,802
2018-01-15T01:28:24.434Z,803
2018-01-15T01:29:31.343Z,803
2018-01-15T01:30:37.970Z,802
2018-01-15T01:31:45.158Z,804
2018-01-15T01:32:52.068Z,803
2018-01-15T01:33:59.254Z,805
2018-01-15T01:35:06.440Z,805
2018-01-15T01:36:13.629Z,807
2018-01-15T01:37:20.812Z,806
2018-01-15T01:38:28.052Z,807
2018-01-15T01:39:34.961Z,805
2018-01-15T01:40:42.150Z,805
2018-01-15T01:41:49.338Z,805
2018-01-15T01:42:56.246Z,807
2018-01-15T01:44:03.431Z,806
2018-01-15T01:45:10.621Z,807
2018-01-15T01:46:17.814Z,805
2018-01-15T01:47:25.003Z,806
2018-01-15T01:48:31.918Z,806
2018-01-15T01:49:39.105Z,807
2018-01-15T01:50:46.290Z,806
2018-01-15T01:51:53.476Z,807
2018-01-15T01:53:00.661Z,807
2018-01-15T01:54:07.845Z,805
2018-01-15T01:55:15.026Z,806
2018-01-15T01:56:22.213Z,807
2018-01-15T01:57:29.121Z,807
2018-01-15T01:58:36.317Z,807
2018-01-15T01:59:43.505Z,807
2018-01-15T02:00:50.691Z,807
2018-01-15T02:01:57.876Z,807
2018-01-15T02:03:05.063Z,808
2018-01-15T02:04:12.299Z,806
2018-01-15T02:05:19.498Z,807
2018-01-15T02:06:26.681Z,807
2018-01-15T02:07:33.872Z,807
2018-01-15T02:08:41.056Z,806
2018-01-15T02:09:48.257Z,807
2018-01-15T02:10:55.444Z,808
2018-01-15T02:12:02.633Z,808
2018-01-15T02:13:09.819Z,809
2018-01-15T02:14:17.038Z,811
2018-01-15T02:15:24.221Z,810
2018-01-15T02:16:31.407Z,812
2018-01-15T02:17:38.601Z,809
2018-01-15T02:18:45.800Z,811
2018-01-15T02:19:52.971Z,809
2018-01-15T02:21:00.162Z,808
2018-01-15T02:22:07.352Z,807
2018-01-15T02:23:14.543Z,806
2018-01-15T02:24:21.728Z,807
2018-01-15T02:25:28.914Z,806
2018-01-15T02:26:36.099Z,807
2018-01-15T02:27:43.319Z,806
2018-01-15T02:28:50.514Z,806
2018-01-15T02:29:57.930Z,805
2018-01-15T02:31:04.829Z,807
2018-01-15T02:32:12.014Z,806
2018-01-15T02:33:19.199Z,807
2018-01-15T02:34:26.400Z,807
2018-01-15T02:35:33.583Z,807
2018-01-15T02:36:40.770Z,807
2018-01-15T02:37:47.960Z,806
2018-01-15T02:38:55.140Z,807
2018-01-15T02:40:02.043Z,806
2018-01-15T02:41:08.962Z,807
2018-01-15T02:42:16.145Z,806
2018-01-15T02:43:23.330Z,807
2018-01-15T02:44:30.521Z,807
2018-01-15T02:45:37.753Z,808
2018-01-15T02:46:44.666Z,806
2018-01-15T02:47:51.852Z,805
2018-01-15T02:48:59.040Z,806
2018-01-15T02:50:06.225Z,806
2018-01-15T02:51:13.133Z,805
2018-01-15T02:52:20.333Z,805
2018-01-15T02:53:27.530Z,805
2018-01-15T02:54:34.727Z,805
2018-01-15T02:55:41.917Z,805
2018-01-15T02:56:49.101Z,804
2018-01-15T02:57:56.029Z,803
2018-01-15T02:59:03.212Z,804
2018-01-15T03:00:10.403Z,805
2018-01-15T03:01:17.589Z,804
2018-01-15T03:02:24.786Z,805
2018-01-15T03:03:31.974Z,804
2018-01-15T03:04:39.163Z,805
2018-01-15T03:05:45.806Z,806
2018-01-15T03:06:52.993Z,805
2018-01-15T03:08:00.186Z,805
2018-01-15T03:09:07.379Z,805
2018-01-15T03:10:14.287Z,806
2018-01-15T03:11:21.479Z,806
2018-01-15T03:12:28.673Z,807
2018-01-15T03:13:35.601Z,808
2018-01-15T03:14:42.791Z,809
2018-01-15T03:15:49.976Z,808
2018-01-15T03:16:57.163Z,807
2018-01-15T03:18:04.353Z,807
2018-01-15T03:19:11.267Z,807
2018-01-15T03:20:18.455Z,807
2018-01-15T03:21:25.366Z,806
2018-01-15T03:22:32.279Z,806
2018-01-15T03:23:39.467Z,805
2018-01-15T03:24:46.690Z,803
2018-01-15T03:25:53.879Z,804
2018-01-15T03:27:01.069Z,803
2018-01-15T03:28:08.252Z,803
2018-01-15T03:29:15.437Z,804
2018-01-15T03:30:22.623Z,803
2018-01-15T03:31:29.535Z,803
2018-01-15T03:32:36.723Z,803
2018-01-15T03:33:43.907Z,803
2018-01-15T03:34:51.094Z,803
2018-01-15T03:35:58.283Z,803
2018-01-15T03:37:05.204Z,802
2018-01-15T03:38:12.391Z,803
2018-01-15T03:39:19.582Z,803
2018-01-15T03:40:26.765Z,802
2018-01-15T03:41:33.953Z,801
2018-01-15T03:42:41.139Z,801
2018-01-15T03:43:48.056Z,801
2018-01-15T03:44:55.246Z,801
2018-01-15T03:46:02.474Z,800
2018-01-15T03:47:09.644Z,800
2018-01-15T03:48:16.830Z,800
2018-01-15T03:49:24.019Z,799
2018-01-15T03:50:30.924Z,799
2018-01-15T03:51:37.833Z,800
2018-01-15T03:52:45.022Z,799
2018-01-15T03:53:52.208Z,799
2018-01-15T03:54:59.397Z,799
2018-01-15T03:56:06.583Z,799
2018-01-15T03:57:13.770Z,798
2018-01-15T03:58:20.958Z,799
2018-01-15T03:59:28.144Z,799
2018-01-15T04:00:35.335Z,798
2018-01-15T04:01:42.250Z,798
2018-01-15T04:02:49.430Z,797
2018-01-15T04:03:56.617Z,797
2018-01-15T04:05:03.525Z,798
2018-01-15T04:06:10.709Z,798
2018-01-15T04:07:17.904Z,798
2018-01-15T04:08:25.090Z,797
2018-01-15T04:09:32.272Z,798
2018-01-15T04:10:39.462Z,797
2018-01-15T04:11:46.672Z,797
2018-01-15T04:12:53.856Z,796
2018-01-15T04:14:01.042Z,797
2018-01-15T04:15:07.953Z,795
2018-01-15T04:16:15.151Z,796
2018-01-15T04:17:22.338Z,796
2018-01-15T04:18:29.524Z,796
2018-01-15T04:19:36.709Z,795
2018-01-15T04:20:43.617Z,795
2018-01-15T04:21:50.805Z,796
2018-01-15T04:22:57.719Z,797
2018-01-15T04:24:04.903Z,795
2018-01-15T04:25:12.087Z,796
2018-01-15T04:26:19.275Z,795
2018-01-15T04:27:26.459Z,796
2018-01-15T04:28:33.649Z,799
2018-01-15T04:29:40.861Z,796
2018-01-15T04:30:48.057Z,796
2018-01-15T04:31:55.240Z,796
2018-01-15T04:33:02.434Z,797
2018-01-15T04:34:09.620Z,795
2018-01-15T04:35:16.808Z,794
2018-01-15T04:36:23.998Z,795
2018-01-15T04:37:30.904Z,795
2018-01-15T04:38:38.091Z,796
2018-01-15T04:39:45.008Z,795
2018-01-15T04:40:52.196Z,796
2018-01-15T04:41:59.378Z,795
2018-01-15T04:43:06.569Z,795
2018-01-15T04:44:13.759Z,795
2018-01-15T04:45:20.942Z,796
2018-01-15T04:46:27.857Z,795
2018-01-15T04:47:35.058Z,795
2018-01-15T04:48:42.237Z,796
2018-01-15T04:49:49.428Z,796
2018-01-15T04:50:56.618Z,796
2018-01-15T04:52:03.805Z,796
2018-01-15T04:53:10.720Z,795
2018-01-15T04:54:17.907Z,795
2018-01-15T04:55:24.822Z,795
2018-01-15T04:56:31.738Z,794
2018-01-15T04:57:38.649Z,794
2018-01-15T04:58:45.835Z,795
2018-01-15T04:59:53.022Z,794
2018-01-15T05:01:00.213Z,794
2018-01-15T05:02:07.124Z,794
2018-01-15T05:03:14.313Z,793
2018-01-15T05:04:21.499Z,794
2018-01-15T05:05:28.687Z,794
2018-01-15T05:06:35.895Z,795
2018-01-15T05:07:43.086Z,794
2018-01-15T05:08:50.274Z,794
2018-01-15T05:09:57.455Z,795
2018-01-15T05:11:04.647Z,795
2018-01-15T05:12:11.554Z,794
2018-01-15T05:13:18.746Z,794
2018-01-15T05:14:25.935Z,794
2018-01-15T05:15:33.125Z,794
2018-01-15T05:16:40.312Z,793
2018-01-15T05:17:47.222Z,795
2018-01-15T05:18:54.144Z,794
2018-01-15T05:20:01.330Z,794
2018-01-15T05:21:08.242Z,794
2018-01-15T05:22:15.429Z,794
2018-01-15T05:23:22.621Z,794
2018-01-15T05:24:29.808Z,795
2018-01-15T05:25:36.716Z,794
2018-01-15T05:26:43.904Z,793
2018-01-15T05:27:51.107Z,794
2018-01-15T05:28:58.294Z,794
2018-01-15T05:30:05.481Z,794
2018-01-15T05:31:12.731Z,794
2018-01-15T05:32:19.929Z,793
2018-01-15T05:33:27.117Z,793
2018-01-15T05:34:34.303Z,794
2018-01-15T05:35:41.491Z,793
2018-01-15T05:36:48.681Z,794
2018-01-15T05:37:55.871Z,794
2018-01-15T05:39:03.056Z,793
2018-01-15T05:40:10.240Z,793
2018-01-15T05:41:17.433Z,793
2018-01-15T05:42:24.616Z,794
2018-01-15T05:43:31.798Z,793
2018-01-15T05:44:38.984Z,793
2018-01-15T05:45:46.170Z,793
2018-01-15T05:46:53.365Z,793
2018-01-15T05:48:00.556Z,795
2018-01-15T05:49:07.749Z,794
2018-01-15T05:50:14.935Z,797
2018-01-15T05:51:22.127Z,797
2018-01-15T05:52:29.311Z,796
2018-01-15T05:53:36.223Z,796
2018-01-15T05:54:43.410Z,796
2018-01-15T05:55:50.597Z,796
2018-01-15T05:56:57.785Z,795
2018-01-15T05:58:04.984Z,795
2018-01-15T05:59:12.170Z,796
2018-01-15T06:00:19.083Z,795
2018-01-15T06:01:26.268Z,797
2018-01-15T06:02:33.458Z,796
2018-01-15T06:03:40.646Z,796
2018-01-15T06:04:47.841Z,795
2018-01-15T06:05:55.030Z,797
2018-01-15T06:07:02.221Z,796
2018-01-15T06:08:09.406Z,796
2018-01-15T06:09:16.327Z,798
2018-01-15T06:10:23.515Z,797
2018-01-15T06:11:30.699Z,796
2018-01-15T06:12:37.609Z,798
2018-01-15T06:13:44.798Z,799
2018-01-15T06:14:51.708Z,799
2018-01-15T06:15:58.899Z,797
2018-01-15T06:17:06.096Z,796
2018-01-15T06:18:13.007Z,792
2018-01-15T06:19:20.190Z,791
2018-01-15T06:20:27.382Z,791
2018-01-15T06:21:34.571Z,790
2018-01-15T06:22:41.761Z,791
2018-01-15T06:23:48.954Z,791
2018-01-15T06:24:55.878Z,792
2018-01-15T06:26:02.798Z,791
2018-01-15T06:27:09.994Z,791
2018-01-15T06:28:17.213Z,791
2018-01-15T06:29:24.127Z,791
2018-01-15T06:30:31.036Z,792
2018-01-15T06:31:38.226Z,791
2018-01-15T06:32:45.421Z,792
2018-01-15T06:33:52.614Z,792
2018-01-15T06:34:59.801Z,792
2018-01-15T06:36:06.989Z,792
2018-01-15T06:37:14.173Z,792
2018-01-15T06:38:21.362Z,792
2018-01-15T06:39:28.551Z,792
2018-01-15T06:40:35.759Z,792
2018-01-15T06:41:42.947Z,792
2018-01-15T06:42:50.140Z,792
2018-01-15T06:43:57.324Z,792
2018-01-15T06:45:04.512Z,792
2018-01-15T06:46:11.696Z,792
2018-01-15T06:47:18.881Z,792
2018-01-15T06:48:25.795Z,792
2018-01-15T06:49:32.985Z,792
2018-01-15T06:50:40.177Z,791
2018-01-15T06:51:47.096Z,792
2018-01-15T06:52:54.286Z,793
2018-01-15T06:54:01.512Z,792
2018-01-15T06:55:08.702Z,792
2018-01-15T06:56:15.891Z,792
2018-01-15T06:57:23.081Z,792
2018-01-15T06:58:30.277Z,791
2018-01-15T06:59:37.465Z,792
2018-01-15T07:00:44.653Z,791
2018-01-15T07:01:51.841Z,792
2018-01-15T07:02:59.026Z,791
2018-01-15T07:04:05.940Z,792
2018-01-15T07:05:13.158Z,791
2018-01-15T07:06:19.790Z,792
2018-01-15T07:07:26.981Z,792
2018-01-15T07:08:34.172Z,792
2018-01-15T07:09:41.352Z,793
2018-01-15T07:10:48.536Z,792
2018-01-15T07:11:55.726Z,792
2018-01-15T07:13:02.946Z,793
2018-01-15T07:14:10.136Z,793
2018-01-15T07:15:17.323Z,793
2018-01-15T07:16:24.516Z,792
2018-01-15T07:17:31.709Z,793
2018-01-15T07:18:38.899Z,792
2018-01-15T07:19:46.086Z,793
2018-01-15T07:20:52.993Z,793
2018-01-15T07:22:00.187Z,793
2018-01-15T07:23:07.104Z,792
2018-01-15T07:24:14.290Z,794
2018-01-15T07:25:21.481Z,792
2018-01-15T07:26:28.668Z,792
2018-01-15T07:27:35.859Z,793
2018-01-15T07:28:43.056Z,793
2018-01-15T07:29:50.243Z,794
2018-01-15T07:30:57.439Z,793
2018-01-15T07:32:04.622Z,792
2018-01-15T07:33:11.536Z,792
2018-01-15T07:34:18.174Z,793
2018-01-15T07:35:25.365Z,792
2018-01-15T07:36:32.274Z,792
2018-01-15T07:37:39.468Z,792
2018-01-15T07:38:46.689Z,791
2018-01-15T07:39:53.938Z,792
2018-01-15T07:41:01.134Z,793
2018-01-15T07:43:14.936Z,792
2018-01-15T07:44:21.856Z,792
2018-01-15T07:45:29.047Z,792
2018-01-15T07:46:36.761Z,793
2018-01-15T07:47:43.949Z,793
2018-01-15T07:48:51.146Z,792
2018-01-15T07:49:58.351Z,794
2018-01-15T07:51:05.275Z,794
2018-01-15T07:52:12.462Z,793
2018-01-15T07:53:19.653Z,793
2018-01-15T07:54:26.573Z,794
2018-01-15T07:55:33.760Z,792
2018-01-15T07:56:40.946Z,793
2018-01-15T07:57:48.136Z,793
2018-01-15T07:58:55.328Z,794
2018-01-15T08:00:02.517Z,795
2018-01-15T08:01:09.706Z,794
2018-01-15T08:02:16.899Z,795
2018-01-15T08:03:23.813Z,794
2018-01-15T08:04:30.997Z,795
2018-01-15T08:05:37.913Z,795
2018-01-15T08:06:45.103Z,795
2018-01-15T08:07:52.289Z,795
2018-01-15T08:08:59.479Z,794
2018-01-15T08:10:06.671Z,796
2018-01-15T08:11:13.863Z,794
2018-01-15T08:12:21.054Z,795
2018-01-15T08:13:28.243Z,794
2018-01-15T08:14:35.431Z,795
2018-01-15T08:15:42.624Z,795
2018-01-15T08:16:49.810Z,796
2018-01-15T08:17:56.997Z,795
2018-01-15T08:19:04.194Z,795
2018-01-15T08:20:11.383Z,795
2018-01-15T08:21:18.293Z,795
2018-01-15T08:22:25.201Z,795
2018-01-15T08:23:32.395Z,795
2018-01-15T08:24:39.580Z,795
2018-01-15T08:25:46.776Z,795
2018-01-15T08:26:53.966Z,795
2018-01-15T08:28:01.162Z,796
2018-01-15T08:29:08.375Z,796
2018-01-15T08:30:15.544Z,796
2018-01-15T08:31:22.729Z,795
2018-01-15T08:32:29.642Z,796
2018-01-15T08:33:36.829Z,796
2018-01-15T08:34:44.016Z,795
2018-01-15T08:35:50.931Z,797
2018-01-15T08:36:57.851Z,795
2018-01-15T08:38:05.045Z,795
2018-01-15T08:39:12.235Z,796
2018-01-15T08:40:19.429Z,795
2018-01-15T08:41:26.616Z,796
2018-01-15T08:42:33.802Z,797
2018-01-15T08:43:41.198Z,797
2018-01-15T08:44:48.390Z,797
2018-01-15T08:45:55.299Z,797
2018-01-15T08:47:02.219Z,797
2018-01-15T08:48:09.408Z,797
2018-01-15T08:49:16.321Z,796
2018-01-15T08:50:23.511Z,797
2018-01-15T08:51:30.702Z,796
2018-01-15T08:52:37.895Z,797
2018-01-15T08:53:59.732Z,797
2018-01-15T08:55:06.647Z,797
2018-01-15T08:56:13.836Z,798
2018-01-15T08:57:21.023Z,797
2018-01-15T08:58:28.217Z,797
2018-01-15T08:59:34.860Z,797
2018-01-15T09:00:42.067Z,797
2018-01-15T09:01:49.271Z,796
2018-01-15T09:02:56.464Z,797
2018-01-15T09:04:03.658Z,797
2018-01-15T09:05:10.842Z,797
2018-01-15T09:06:18.036Z,797
2018-01-15T09:07:25.224Z,797
2018-01-15T09:08:32.421Z,796
2018-01-15T09:09:39.610Z,797
2018-01-15T09:10:46.802Z,797
2018-01-15T09:11:53.717Z,796
2018-01-15T09:13:00.906Z,796
2018-01-15T09:14:08.094Z,798
2018-01-15T09:15:15.286Z,797
2018-01-15T09:16:22.488Z,798
2018-01-15T09:17:29.408Z,797
2018-01-15T09:18:36.606Z,797
2018-01-15T09:19:43.798Z,797
2018-01-15T09:20:50.720Z,797
2018-01-15T09:21:57.638Z,798
2018-01-15T09:23:04.836Z,797
2018-01-15T09:24:12.024Z,797
2018-01-15T09:25:19.214Z,798
2018-01-15T09:26:26.402Z,797
2018-01-15T09:27:33.598Z,797
2018-01-15T09:28:40.788Z,798
2018-01-15T09:29:47.982Z,798
2018-01-15T09:30:55.176Z,798
2018-01-15T09:32:02.084Z,798
2018-01-15T09:33:09.281Z,799
2018-01-15T09:34:16.475Z,798
2018-01-15T09:35:23.659Z,799
2018-01-15T09:36:30.848Z,799
2018-01-15T09:37:38.041Z,798
2018-01-15T09:38:45.230Z,799
2018-01-15T09:39:52.151Z,798
2018-01-15T09:40:59.370Z,798
2018-01-15T09:42:06.562Z,800
2018-01-15T09:43:13.857Z,798
2018-01-15T09:44:21.078Z,799
2018-01-15T09:45:28.000Z,799
2018-01-15T09:46:35.192Z,799
2018-01-15T09:47:42.380Z,799
2018-01-15T09:48:49.298Z,800
2018-01-15T09:49:56.488Z,799
2018-01-15T09:51:03.677Z,800
2018-01-15T09:52:10.587Z,801
2018-01-15T09:53:17.518Z,800
2018-01-15T09:54:24.446Z,800
2018-01-15T09:55:31.691Z,801
2018-01-15T09:56:38.913Z,799
2018-01-15T09:57:46.103Z,800
2018-01-15T09:58:53.289Z,801
2018-01-15T09:59:59.651Z,800
2018-01-15T10:01:06.847Z,801
2018-01-15T10:02:13.759Z,800
2018-01-15T10:03:20.953Z,801
2018-01-15T10:04:27.862Z,800
2018-01-15T10:05:35.050Z,799
2018-01-15T10:06:42.248Z,800
2018-01-15T10:07:49.449Z,800
2018-01-15T10:08:56.655Z,799
2018-01-15T10:10:03.878Z,801
2018-01-15T10:11:11.064Z,800
2018-01-15T10:12:17.699Z,801
2018-01-15T10:13:24.887Z,801
2018-01-15T10:14:32.077Z,801
2018-01-15T10:15:39.266Z,801
2018-01-15T10:16:46.453Z,800
2018-01-15T10:17:53.645Z,800
2018-01-15T10:19:00.831Z,800
2018-01-15T10:20:08.020Z,800
2018-01-15T10:21:15.208Z,800
2018-01-15T10:22:22.400Z,801
2018-01-15T10:23:29.589Z,800
2018-01-15T10:24:36.790Z,801
2018-01-15T10:25:43.713Z,800
2018-01-15T10:26:50.906Z,800
2018-01-15T10:27:58.095Z,800
2018-01-15T10:29:05.287Z,800
2018-01-15T10:30:12.475Z,800
2018-01-15T10:31:19.664Z,800
2018-01-15T10:32:26.853Z,800
2018-01-15T10:33:33.766Z,800
2018-01-15T10:34:40.954Z,802
2018-01-15T10:35:47.869Z,801
2018-01-15T10:36:55.060Z,800
2018-01-15T10:38:01.969Z,801
2018-01-15T10:39:09.160Z,801
2018-01-15T10:40:16.356Z,801
2018-01-15T10:41:23.546Z,800
2018-01-15T10:42:30.742Z,801
2018-01-15T10:43:38.153Z,801
2018-01-15T10:44:45.078Z,802
2018-01-15T10:45:52.268Z,802
2018-01-15T10:46:59.179Z,800
2018-01-15T10:48:06.094Z,801
2018-01-15T10:49:13.360Z,800
2018-01-15T10:50:20.549Z,800
2018-01-15T10:51:27.739Z,800
2018-01-15T10:52:34.652Z,801
2018-01-15T10:53:41.837Z,801
2018-01-15T10:54:49.037Z,800
2018-01-15T10:55:56.224Z,799
2018-01-15T10:57:03.418Z,800
2018-01-15T10:58:10.608Z,800
2018-01-15T10:59:17.799Z,801
2018-01-15T11:00:24.990Z,801
2018-01-15T11:01:32.183Z,801
2018-01-15T11:02:39.125Z,801
2018-01-15T11:03:46.322Z,802
2018-01-15T11:04:53.510Z,802
2018-01-15T11:06:00.701Z,803
2018-01-15T11:07:07.618Z,802
2018-01-15T11:08:14.536Z,802
2018-01-15T11:09:21.452Z,802
2018-01-15T11:10:28.643Z,803
2018-01-15T11:11:50.502Z,803
2018-01-15T11:12:57.734Z,802
2018-01-15T11:14:04.945Z,802
2018-01-15T11:15:12.159Z,803
2018-01-15T11:16:19.355Z,803
2018-01-15T11:17:25.995Z,803
2018-01-15T11:18:33.195Z,803
2018-01-15T11:19:40.110Z,803
2018-01-15T11:20:47.311Z,803
2018-01-15T11:21:54.504Z,803
2018-01-15T11:23:01.472Z,802
2018-01-15T11:24:08.717Z,802
2018-01-15T11:25:15.915Z,802
2018-01-15T11:26:23.110Z,803
2018-01-15T11:27:30.301Z,803
2018-01-15T11:28:37.211Z,802
2018-01-15T11:29:44.402Z,802
2018-01-15T11:30:51.604Z,802
2018-01-15T11:31:58.792Z,802
2018-01-15T11:33:05.987Z,803
2018-01-15T11:34:13.181Z,802
2018-01-15T11:35:20.365Z,803
2018-01-15T11:36:27.558Z,803
2018-01-15T11:37:34.749Z,803
2018-01-15T11:38:41.971Z,804
2018-01-15T11:39:49.160Z,804
2018-01-15T11:40:56.351Z,804
2018-01-15T11:42:03.538Z,803
2018-01-15T11:43:10.728Z,804
2018-01-15T11:44:17.917Z,804
2018-01-15T11:45:24.556Z,803
2018-01-15T11:46:31.759Z,804
2018-01-15T11:47:38.670Z,804
2018-01-15T11:48:45.857Z,804
2018-01-15T11:49:53.043Z,804
2018-01-15T11:51:00.234Z,803
2018-01-15T11:52:07.427Z,804
2018-01-15T11:53:14.619Z,803
2018-01-15T11:54:21.809Z,803
2018-01-15T11:55:28.732Z,803
2018-01-15T11:56:35.923Z,804
2018-01-15T11:57:43.108Z,803
2018-01-15T11:58:50.299Z,804
2018-01-15T11:59:57.489Z,804
2018-01-15T12:01:04.683Z,805
2018-01-15T12:02:11.874Z,804
2018-01-15T12:03:19.064Z,804
2018-01-15T12:04:26.252Z,805
2018-01-15T12:05:33.442Z,804
2018-01-15T12:06:40.638Z,804
2018-01-15T12:07:47.828Z,805
2018-01-15T12:08:55.022Z,804
2018-01-15T12:10:02.212Z,805
2018-01-15T12:11:09.403Z,804
2018-01-15T12:12:16.597Z,804
2018-01-15T12:13:23.791Z,804
2018-01-15T12:14:30.984Z,804
2018-01-15T12:15:38.179Z,804
2018-01-15T12:16:45.391Z,803
2018-01-15T12:17:52.589Z,803
2018-01-15T12:18:59.786Z,804
2018-01-15T12:20:06.976Z,804
2018-01-15T12:21:14.176Z,805
2018-01-15T12:22:21.401Z,804
2018-01-15T12:23:28.595Z,804
2018-01-15T12:24:35.788Z,804
2018-01-15T12:25:42.428Z,804
2018-01-15T12:26:49.618Z,804
2018-01-15T12:27:56.806Z,805
2018-01-15T12:29:03.997Z,804
2018-01-15T12:30:11.196Z,804
2018-01-15T12:31:18.403Z,805
2018-01-15T12:32:25.578Z,803
2018-01-15T12:33:32.776Z,804
2018-01-15T12:34:39.962Z,804
2018-01-15T12:35:47.174Z,804
2018-01-15T12:36:54.368Z,804
2018-01-15T12:38:01.555Z,804
2018-01-15T12:39:08.745Z,804
2018-01-15T12:40:15.935Z,805
2018-01-15T12:41:23.121Z,805
2018-01-15T12:42:30.327Z,803
2018-01-15T12:43:37.518Z,804
2018-01-15T12:44:44.711Z,804
2018-01-15T12:45:51.900Z,804
2018-01-15T12:46:59.092Z,804
2018-01-15T12:48:06.289Z,805
2018-01-15T12:49:13.481Z,805
2018-01-15T12:50:20.673Z,805
2018-01-15T12:51:27.591Z,805
2018-01-15T12:52:34.784Z,805
2018-01-15T12:53:41.968Z,806
2018-01-15T12:54:49.155Z,806
2018-01-15T12:55:56.355Z,805
2018-01-15T12:57:03.542Z,805
2018-01-15T12:58:10.727Z,806
2018-01-15T12:59:17.641Z,806
2018-01-15T13:00:24.833Z,806
2018-01-15T13:01:32.023Z,805
2018-01-15T13:02:39.217Z,805
2018-01-15T13:03:46.134Z,806
2018-01-15T13:04:53.326Z,804
2018-01-15T13:06:00.517Z,804
2018-01-15T13:07:07.707Z,805
2018-01-15T13:08:14.901Z,804
2018-01-15T13:09:22.090Z,806
2018-01-15T13:10:29.283Z,806
2018-01-15T13:11:36.545Z,805
2018-01-15T13:12:43.176Z,806
2018-01-15T13:13:50.367Z,806
2018-01-15T13:14:57.558Z,806
2018-01-15T13:16:04.748Z,805
2018-01-15T13:17:11.942Z,806
2018-01-15T13:18:19.158Z,805
2018-01-15T13:19:26.346Z,804
2018-01-15T13:20:33.542Z,806
2018-01-15T13:21:40.730Z,805
2018-01-15T13:22:47.638Z,805
2018-01-15T13:23:54.831Z,806
2018-01-15T13:25:02.029Z,805
2018-01-15T13:26:08.944Z,805
2018-01-15T13:27:16.140Z,806
2018-01-15T13:28:23.357Z,806
2018-01-15T13:29:30.274Z,806
2018-01-15T13:30:37.470Z,806
2018-01-15T13:31:44.682Z,807
2018-01-15T13:32:51.908Z,807
2018-01-15T13:33:59.096Z,806
2018-01-15T13:35:06.285Z,806
2018-01-15T13:36:13.476Z,806
2018-01-15T13:37:20.670Z,806
2018-01-15T13:38:27.860Z,807
2018-01-15T13:39:35.047Z,806
